sensor_id;sensor_type;location;lat;lon;timestamp;P1;durP1;ratioP1;P2;durP2;ratioP2
16624;SDS011;8426;48.496;9.098;2023-07-31T00:02:48;4.28;;;1.90;;
16624;SDS011;8426;48.496;9.098;2023-07-31T00:07:53;2.22;;;0.95;;
16624;SDS011;8426;48.496;9.098;2023-07-31T00:12:57;4.63;;;1.23;;
16624;SDS011;8426;48.496;9.098;2023-07-31T00:18:00;4.72;;;0.80;;
16624;SDS011;8426;48.496;9.098;2023-07-31T00:23:05;2.45;;;0.90;;
16624;SDS011;8426;48.496;9.098;2023-07-31T00:28:08;3.05;;;1.23;;
16624;SDS011;8426;48.496;9.098;2023-07-31T00:33:12;2.22;;;0.98;;
16624;SDS011;8426;48.496;9.098;2023-07-31T00:38:17;3.22;;;1.05;;
16624;SDS011;8426;48.496;9.098;2023-07-31T00:43:20;4.97;;;1.10;;
16624;SDS011;8426;48.496;9.098;2023-07-31T00:48:24;3.85;;;0.90;;
16624;SDS011;8426;48.496;9.098;2023-07-31T00:53:29;2.58;;;1.00;;
16624;SDS011;8426;48.496;9.098;2023-07-31T00:58:33;2.55;;;0.90;;
16624;SDS011;8426;48.496;9.098;2023-07-31T01:03:37;3.17;;;1.30;;
16624;SDS011;8426;48.496;9.098;2023-07-31T01:08:44;2.40;;;0.80;;
16624;SDS011;8426;48.496;9.098;2023-07-31T01:14:00;2.85;;;1.13;;
16624;SDS011;8426;48.496;9.098;2023-07-31T01:19:04;1.75;;;0.82;;
16624;SDS011;8426;48.496;9.098;2023-07-31T01:24:15;2.25;;;1.00;;
16624;SDS011;8426;48.496;9.098;2023-07-31T01:29:26;1.58;;;1.10;;
16624;SDS011;8426;48.496;9.098;2023-07-31T01:34:37;2.95;;;1.15;;
16624;SDS011;8426;48.496;9.098;2023-07-31T01:39:41;6.10;;;1.30;;
16624;SDS011;8426;48.496;9.098;2023-07-31T01:44:46;2.72;;;1.60;;
16624;SDS011;8426;48.496;9.098;2023-07-31T01:49:50;1.85;;;0.85;;
16624;SDS011;8426;48.496;9.098;2023-07-31T01:54:53;7.32;;;1.17;;
16624;SDS011;8426;48.496;9.098;2023-07-31T01:59:58;1.80;;;1.05;;
16624;SDS011;8426;48.496;9.098;2023-07-31T02:05:01;2.17;;;1.23;;
16624;SDS011;8426;48.496;9.098;2023-07-31T02:10:05;3.42;;;1.40;;
16624;SDS011;8426;48.496;9.098;2023-07-31T02:15:10;5.47;;;1.10;;
16624;SDS011;8426;48.496;9.098;2023-07-31T02:20:13;1.23;;;1.10;;
16624;SDS011;8426;48.496;9.098;2023-07-31T02:25:16;2.10;;;1.10;;
16624;SDS011;8426;48.496;9.098;2023-07-31T02:30:21;2.22;;;1.13;;
16624;SDS011;8426;48.496;9.098;2023-07-31T02:35:24;3.83;;;1.70;;
16624;SDS011;8426;48.496;9.098;2023-07-31T02:40:28;3.05;;;0.95;;
16624;SDS011;8426;48.496;9.098;2023-07-31T02:45:32;6.22;;;1.40;;
16624;SDS011;8426;48.496;9.098;2023-07-31T02:50:36;7.38;;;1.73;;
16624;SDS011;8426;48.496;9.098;2023-07-31T02:55:43;3.92;;;1.30;;
16624;SDS011;8426;48.496;9.098;2023-07-31T03:00:48;4.40;;;1.38;;
16624;SDS011;8426;48.496;9.098;2023-07-31T03:05:51;3.63;;;1.35;;
16624;SDS011;8426;48.496;9.098;2023-07-31T03:10:56;2.00;;;1.30;;
16624;SDS011;8426;48.496;9.098;2023-07-31T03:16:01;3.17;;;1.23;;
16624;SDS011;8426;48.496;9.098;2023-07-31T03:21:05;5.00;;;1.58;;
16624;SDS011;8426;48.496;9.098;2023-07-31T03:26:08;3.85;;;1.05;;
16624;SDS011;8426;48.496;9.098;2023-07-31T03:31:13;3.15;;;1.33;;
16624;SDS011;8426;48.496;9.098;2023-07-31T03:36:16;2.30;;;1.15;;
16624;SDS011;8426;48.496;9.098;2023-07-31T03:41:20;2.58;;;1.27;;
16624;SDS011;8426;48.496;9.098;2023-07-31T03:46:24;3.67;;;1.58;;
16624;SDS011;8426;48.496;9.098;2023-07-31T03:51:28;3.90;;;1.45;;
16624;SDS011;8426;48.496;9.098;2023-07-31T03:56:31;6.68;;;1.55;;
16624;SDS011;8426;48.496;9.098;2023-07-31T04:01:38;3.97;;;1.50;;
16624;SDS011;8426;48.496;9.098;2023-07-31T04:06:41;3.28;;;1.23;;
16624;SDS011;8426;48.496;9.098;2023-07-31T04:11:44;4.60;;;1.27;;
16624;SDS011;8426;48.496;9.098;2023-07-31T04:16:49;2.25;;;1.33;;
16624;SDS011;8426;48.496;9.098;2023-07-31T04:21:54;3.75;;;1.60;;
16624;SDS011;8426;48.496;9.098;2023-07-31T04:26:57;3.40;;;1.30;;
16624;SDS011;8426;48.496;9.098;2023-07-31T04:32:02;3.38;;;1.35;;
16624;SDS011;8426;48.496;9.098;2023-07-31T04:37:06;3.38;;;1.25;;
16624;SDS011;8426;48.496;9.098;2023-07-31T04:42:09;2.38;;;1.00;;
16624;SDS011;8426;48.496;9.098;2023-07-31T04:47:14;3.10;;;1.60;;
16624;SDS011;8426;48.496;9.098;2023-07-31T04:52:17;3.22;;;1.10;;
16624;SDS011;8426;48.496;9.098;2023-07-31T04:57:20;1.92;;;1.10;;
16624;SDS011;8426;48.496;9.098;2023-07-31T05:02:25;4.57;;;1.63;;
16624;SDS011;8426;48.496;9.098;2023-07-31T05:07:29;5.65;;;0.98;;
16624;SDS011;8426;48.496;9.098;2023-07-31T05:12:32;2.47;;;1.27;;
16624;SDS011;8426;48.496;9.098;2023-07-31T05:17:37;5.82;;;1.50;;
16624;SDS011;8426;48.496;9.098;2023-07-31T05:22:40;2.08;;;1.00;;
16624;SDS011;8426;48.496;9.098;2023-07-31T05:27:43;1.73;;;0.93;;
16624;SDS011;8426;48.496;9.098;2023-07-31T05:32:49;2.25;;;0.90;;
16624;SDS011;8426;48.496;9.098;2023-07-31T05:37:52;4.75;;;1.10;;
16624;SDS011;8426;48.496;9.098;2023-07-31T05:42:56;4.50;;;1.33;;
16624;SDS011;8426;48.496;9.098;2023-07-31T05:48:01;3.30;;;0.93;;
16624;SDS011;8426;48.496;9.098;2023-07-31T05:53:07;4.85;;;1.17;;
16624;SDS011;8426;48.496;9.098;2023-07-31T05:58:11;4.25;;;1.08;;
16624;SDS011;8426;48.496;9.098;2023-07-31T06:03:16;2.97;;;1.25;;
16624;SDS011;8426;48.496;9.098;2023-07-31T06:08:20;1.77;;;1.08;;
16624;SDS011;8426;48.496;9.098;2023-07-31T06:13:23;3.13;;;1.10;;
16624;SDS011;8426;48.496;9.098;2023-07-31T06:18:28;4.35;;;1.20;;
16624;SDS011;8426;48.496;9.098;2023-07-31T06:23:31;3.05;;;1.08;;
16624;SDS011;8426;48.496;9.098;2023-07-31T06:28:35;3.70;;;1.10;;
16624;SDS011;8426;48.496;9.098;2023-07-31T06:33:39;5.20;;;1.20;;
16624;SDS011;8426;48.496;9.098;2023-07-31T06:38:43;3.78;;;1.30;;
16624;SDS011;8426;48.496;9.098;2023-07-31T06:43:46;7.28;;;1.15;;
16624;SDS011;8426;48.496;9.098;2023-07-31T06:48:51;3.17;;;1.00;;
16624;SDS011;8426;48.496;9.098;2023-07-31T06:53:54;2.08;;;0.85;;
16624;SDS011;8426;48.496;9.098;2023-07-31T06:58:57;3.20;;;0.90;;
16624;SDS011;8426;48.496;9.098;2023-07-31T07:04:02;1.50;;;0.85;;
16624;SDS011;8426;48.496;9.098;2023-07-31T07:09:06;3.35;;;0.88;;
16624;SDS011;8426;48.496;9.098;2023-07-31T07:14:09;3.13;;;1.05;;
16624;SDS011;8426;48.496;9.098;2023-07-31T07:19:14;4.25;;;1.23;;
16624;SDS011;8426;48.496;9.098;2023-07-31T07:24:17;2.63;;;1.10;;
16624;SDS011;8426;48.496;9.098;2023-07-31T07:29:20;2.47;;;1.20;;
16624;SDS011;8426;48.496;9.098;2023-07-31T07:34:26;2.28;;;1.02;;
16624;SDS011;8426;48.496;9.098;2023-07-31T07:39:31;4.25;;;1.25;;
16624;SDS011;8426;48.496;9.098;2023-07-31T07:44:34;4.07;;;1.35;;
16624;SDS011;8426;48.496;9.098;2023-07-31T07:49:39;3.22;;;1.40;;
16624;SDS011;8426;48.496;9.098;2023-07-31T07:54:42;2.30;;;1.08;;
16624;SDS011;8426;48.496;9.098;2023-07-31T07:59:46;4.80;;;1.42;;
16624;SDS011;8426;48.496;9.098;2023-07-31T08:04:51;14.02;;;1.60;;
16624;SDS011;8426;48.496;9.098;2023-07-31T08:09:54;2.08;;;1.00;;
16624;SDS011;8426;48.496;9.098;2023-07-31T08:14:57;3.25;;;1.50;;
16624;SDS011;8426;48.496;9.098;2023-07-31T08:20:04;5.50;;;1.17;;
16624;SDS011;8426;48.496;9.098;2023-07-31T08:25:08;2.95;;;1.45;;
16624;SDS011;8426;48.496;9.098;2023-07-31T08:30:12;4.35;;;1.50;;
16624;SDS011;8426;48.496;9.098;2023-07-31T08:35:17;5.00;;;1.20;;
16624;SDS011;8426;48.496;9.098;2023-07-31T08:40:20;3.22;;;1.70;;
16624;SDS011;8426;48.496;9.098;2023-07-31T08:45:25;4.45;;;1.30;;
16624;SDS011;8426;48.496;9.098;2023-07-31T08:50:30;2.47;;;1.17;;
16624;SDS011;8426;48.496;9.098;2023-07-31T08:55:34;3.78;;;1.50;;
16624;SDS011;8426;48.496;9.098;2023-07-31T09:00:38;7.32;;;1.58;;
16624;SDS011;8426;48.496;9.098;2023-07-31T09:05:44;4.80;;;1.45;;
16624;SDS011;8426;48.496;9.098;2023-07-31T09:10:48;5.85;;;1.58;;
16624;SDS011;8426;48.496;9.098;2023-07-31T09:15:52;7.88;;;1.63;;
16624;SDS011;8426;48.496;9.098;2023-07-31T09:21:03;3.88;;;1.55;;
16624;SDS011;8426;48.496;9.098;2023-07-31T09:26:09;6.10;;;1.70;;
16624;SDS011;8426;48.496;9.098;2023-07-31T09:31:12;5.65;;;1.70;;
16624;SDS011;8426;48.496;9.098;2023-07-31T09:36:17;7.43;;;1.75;;
16624;SDS011;8426;48.496;9.098;2023-07-31T09:41:21;4.55;;;1.80;;
16624;SDS011;8426;48.496;9.098;2023-07-31T09:46:26;4.18;;;1.55;;
16624;SDS011;8426;48.496;9.098;2023-07-31T09:51:32;4.13;;;1.50;;
16624;SDS011;8426;48.496;9.098;2023-07-31T09:56:41;4.05;;;1.30;;
16624;SDS011;8426;48.496;9.098;2023-07-31T10:01:46;8.13;;;1.60;;
16624;SDS011;8426;48.496;9.098;2023-07-31T10:06:52;6.97;;;1.80;;
16624;SDS011;8426;48.496;9.098;2023-07-31T10:11:59;4.05;;;1.50;;
16624;SDS011;8426;48.496;9.098;2023-07-31T10:17:06;3.70;;;1.40;;
16624;SDS011;8426;48.496;9.098;2023-07-31T10:22:12;3.45;;;1.30;;
16624;SDS011;8426;48.496;9.098;2023-07-31T10:27:16;5.68;;;1.40;;
16624;SDS011;8426;48.496;9.098;2023-07-31T10:32:20;7.05;;;1.70;;
16624;SDS011;8426;48.496;9.098;2023-07-31T10:37:27;5.35;;;1.70;;
16624;SDS011;8426;48.496;9.098;2023-07-31T10:42:32;3.90;;;1.38;;
16624;SDS011;8426;48.496;9.098;2023-07-31T10:47:37;5.03;;;1.50;;
16624;SDS011;8426;48.496;9.098;2023-07-31T10:52:45;4.80;;;1.73;;
16624;SDS011;8426;48.496;9.098;2023-07-31T10:57:50;6.53;;;2.38;;
16624;SDS011;8426;48.496;9.098;2023-07-31T11:02:58;5.32;;;1.70;;
16624;SDS011;8426;48.496;9.098;2023-07-31T11:08:11;3.63;;;1.50;;
16624;SDS011;8426;48.496;9.098;2023-07-31T11:13:15;5.57;;;1.83;;
16624;SDS011;8426;48.496;9.098;2023-07-31T11:18:18;3.63;;;1.48;;
16624;SDS011;8426;48.496;9.098;2023-07-31T11:23:23;7.07;;;1.95;;
16624;SDS011;8426;48.496;9.098;2023-07-31T11:28:30;3.05;;;1.50;;
16624;SDS011;8426;48.496;9.098;2023-07-31T11:33:35;4.28;;;1.73;;
16624;SDS011;8426;48.496;9.098;2023-07-31T11:38:40;6.47;;;1.60;;
16624;SDS011;8426;48.496;9.098;2023-07-31T11:43:44;3.15;;;1.30;;
16624;SDS011;8426;48.496;9.098;2023-07-31T11:48:49;4.55;;;1.60;;
16624;SDS011;8426;48.496;9.098;2023-07-31T11:53:54;7.93;;;1.80;;
16624;SDS011;8426;48.496;9.098;2023-07-31T11:59:00;4.70;;;1.67;;
16624;SDS011;8426;48.496;9.098;2023-07-31T12:04:07;7.35;;;1.88;;
16624;SDS011;8426;48.496;9.098;2023-07-31T12:09:12;3.03;;;1.63;;
16624;SDS011;8426;48.496;9.098;2023-07-31T12:14:19;6.05;;;1.90;;
16624;SDS011;8426;48.496;9.098;2023-07-31T12:19:24;5.57;;;2.00;;
16624;SDS011;8426;48.496;9.098;2023-07-31T12:24:30;4.22;;;2.10;;
16624;SDS011;8426;48.496;9.098;2023-07-31T12:29:39;5.25;;;1.90;;
16624;SDS011;8426;48.496;9.098;2023-07-31T12:34:42;6.15;;;2.10;;
16624;SDS011;8426;48.496;9.098;2023-07-31T12:39:47;4.22;;;1.70;;
16624;SDS011;8426;48.496;9.098;2023-07-31T12:44:52;4.72;;;1.85;;
16624;SDS011;8426;48.496;9.098;2023-07-31T12:49:55;4.15;;;1.88;;
16624;SDS011;8426;48.496;9.098;2023-07-31T12:55:01;3.08;;;1.67;;
16624;SDS011;8426;48.496;9.098;2023-07-31T13:00:05;5.68;;;2.28;;
16624;SDS011;8426;48.496;9.098;2023-07-31T13:05:09;4.05;;;2.05;;
16624;SDS011;8426;48.496;9.098;2023-07-31T13:10:14;7.78;;;1.83;;
16624;SDS011;8426;48.496;9.098;2023-07-31T13:15:17;3.28;;;1.83;;
16624;SDS011;8426;48.496;9.098;2023-07-31T13:20:21;5.30;;;1.98;;
16624;SDS011;8426;48.496;9.098;2023-07-31T13:25:31;5.07;;;1.75;;
16624;SDS011;8426;48.496;9.098;2023-07-31T13:30:34;4.72;;;1.85;;
16624;SDS011;8426;48.496;9.098;2023-07-31T13:35:37;5.82;;;1.90;;
16624;SDS011;8426;48.496;9.098;2023-07-31T13:40:42;3.88;;;1.92;;
16624;SDS011;8426;48.496;9.098;2023-07-31T13:45:45;7.97;;;2.20;;
16624;SDS011;8426;48.496;9.098;2023-07-31T13:50:49;8.43;;;2.08;;
16624;SDS011;8426;48.496;9.098;2023-07-31T13:55:53;6.22;;;2.22;;
16624;SDS011;8426;48.496;9.098;2023-07-31T14:00:57;5.40;;;2.17;;
16624;SDS011;8426;48.496;9.098;2023-07-31T14:06:00;3.70;;;1.92;;
16624;SDS011;8426;48.496;9.098;2023-07-31T14:11:05;4.93;;;1.85;;
16624;SDS011;8426;48.496;9.098;2023-07-31T14:16:09;4.90;;;1.33;;
16624;SDS011;8426;48.496;9.098;2023-07-31T14:21:13;5.70;;;1.98;;
16624;SDS011;8426;48.496;9.098;2023-07-31T14:26:17;3.72;;;1.70;;
16624;SDS011;8426;48.496;9.098;2023-07-31T14:31:21;5.03;;;1.90;;
16624;SDS011;8426;48.496;9.098;2023-07-31T14:36:24;2.60;;;1.60;;
16624;SDS011;8426;48.496;9.098;2023-07-31T14:41:29;4.43;;;1.98;;
16624;SDS011;8426;48.496;9.098;2023-07-31T14:46:32;6.15;;;1.90;;
16624;SDS011;8426;48.496;9.098;2023-07-31T14:51:36;3.40;;;1.83;;
16624;SDS011;8426;48.496;9.098;2023-07-31T14:56:41;4.50;;;1.70;;
16624;SDS011;8426;48.496;9.098;2023-07-31T15:01:44;6.45;;;1.70;;
16624;SDS011;8426;48.496;9.098;2023-07-31T15:06:48;5.85;;;1.73;;
16624;SDS011;8426;48.496;9.098;2023-07-31T15:11:52;6.30;;;1.90;;
16624;SDS011;8426;48.496;9.098;2023-07-31T15:16:56;4.75;;;1.70;;
16624;SDS011;8426;48.496;9.098;2023-07-31T15:21:59;4.63;;;1.65;;
16624;SDS011;8426;48.496;9.098;2023-07-31T15:27:05;4.80;;;1.80;;
16624;SDS011;8426;48.496;9.098;2023-07-31T15:32:10;3.00;;;1.55;;
16624;SDS011;8426;48.496;9.098;2023-07-31T15:37:13;4.90;;;1.85;;
16624;SDS011;8426;48.496;9.098;2023-07-31T15:42:20;3.80;;;1.88;;
16624;SDS011;8426;48.496;9.098;2023-07-31T15:47:23;4.30;;;1.75;;
16624;SDS011;8426;48.496;9.098;2023-07-31T15:52:26;3.45;;;1.67;;
16624;SDS011;8426;48.496;9.098;2023-07-31T15:57:31;7.75;;;2.13;;
16624;SDS011;8426;48.496;9.098;2023-07-31T16:02:35;7.78;;;2.13;;
16624;SDS011;8426;48.496;9.098;2023-07-31T16:07:41;11.38;;;2.38;;
16624;SDS011;8426;48.496;9.098;2023-07-31T16:12:46;7.15;;;1.85;;
16624;SDS011;8426;48.496;9.098;2023-07-31T16:17:50;4.72;;;2.00;;
16624;SDS011;8426;48.496;9.098;2023-07-31T16:22:56;4.22;;;1.50;;
16624;SDS011;8426;48.496;9.098;2023-07-31T16:28:01;7.35;;;2.60;;
16624;SDS011;8426;48.496;9.098;2023-07-31T16:33:04;5.57;;;2.13;;
16624;SDS011;8426;48.496;9.098;2023-07-31T16:38:08;4.03;;;1.95;;
16624;SDS011;8426;48.496;9.098;2023-07-31T16:43:13;3.95;;;1.92;;
16624;SDS011;8426;48.496;9.098;2023-07-31T16:48:16;3.67;;;1.90;;
16624;SDS011;8426;48.496;9.098;2023-07-31T16:53:20;9.60;;;2.00;;
16624;SDS011;8426;48.496;9.098;2023-07-31T16:58:24;7.72;;;2.05;;
16624;SDS011;8426;48.496;9.098;2023-07-31T17:03:28;4.00;;;1.63;;
16624;SDS011;8426;48.496;9.098;2023-07-31T17:08:32;7.93;;;2.22;;
16624;SDS011;8426;48.496;9.098;2023-07-31T17:13:37;6.53;;;2.00;;
16624;SDS011;8426;48.496;9.098;2023-07-31T17:18:40;9.35;;;2.90;;
16624;SDS011;8426;48.496;9.098;2023-07-31T17:23:44;4.57;;;1.92;;
16624;SDS011;8426;48.496;9.098;2023-07-31T17:28:49;4.28;;;1.80;;
16624;SDS011;8426;48.496;9.098;2023-07-31T17:33:53;5.43;;;2.10;;
16624;SDS011;8426;48.496;9.098;2023-07-31T17:38:56;2.90;;;1.63;;
16624;SDS011;8426;48.496;9.098;2023-07-31T17:44:01;4.30;;;1.67;;
16624;SDS011;8426;48.496;9.098;2023-07-31T17:49:04;5.13;;;1.90;;
16624;SDS011;8426;48.496;9.098;2023-07-31T17:54:07;7.35;;;1.85;;
16624;SDS011;8426;48.496;9.098;2023-07-31T17:59:12;3.53;;;1.80;;
16624;SDS011;8426;48.496;9.098;2023-07-31T18:04:15;4.05;;;1.65;;
16624;SDS011;8426;48.496;9.098;2023-07-31T18:09:19;4.30;;;1.58;;
16624;SDS011;8426;48.496;9.098;2023-07-31T18:14:24;3.33;;;1.70;;
16624;SDS011;8426;48.496;9.098;2023-07-31T18:19:29;3.72;;;1.58;;
16624;SDS011;8426;48.496;9.098;2023-07-31T18:24:32;6.90;;;1.77;;
16624;SDS011;8426;48.496;9.098;2023-07-31T18:29:37;5.55;;;1.83;;
16624;SDS011;8426;48.496;9.098;2023-07-31T18:34:41;6.18;;;1.73;;
16624;SDS011;8426;48.496;9.098;2023-07-31T18:39:44;6.97;;;2.22;;
16624;SDS011;8426;48.496;9.098;2023-07-31T18:44:49;3.90;;;2.13;;
16624;SDS011;8426;48.496;9.098;2023-07-31T18:49:52;2.40;;;1.50;;
16624;SDS011;8426;48.496;9.098;2023-07-31T18:54:56;2.63;;;1.30;;
16624;SDS011;8426;48.496;9.098;2023-07-31T19:00:00;5.25;;;1.88;;
16624;SDS011;8426;48.496;9.098;2023-07-31T19:05:05;5.20;;;1.80;;
16624;SDS011;8426;48.496;9.098;2023-07-31T19:10:08;5.00;;;1.85;;
16624;SDS011;8426;48.496;9.098;2023-07-31T19:15:18;5.05;;;1.85;;
16624;SDS011;8426;48.496;9.098;2023-07-31T19:20:22;4.25;;;1.52;;
16624;SDS011;8426;48.496;9.098;2023-07-31T19:25:25;3.42;;;1.77;;
16624;SDS011;8426;48.496;9.098;2023-07-31T19:30:30;5.30;;;1.45;;
16624;SDS011;8426;48.496;9.098;2023-07-31T19:35:33;9.65;;;1.83;;
16624;SDS011;8426;48.496;9.098;2023-07-31T19:40:37;6.75;;;1.45;;
16624;SDS011;8426;48.496;9.098;2023-07-31T19:45:41;11.05;;;2.47;;
16624;SDS011;8426;48.496;9.098;2023-07-31T19:50:45;3.75;;;2.05;;
16624;SDS011;8426;48.496;9.098;2023-07-31T19:55:49;5.72;;;2.40;;
16624;SDS011;8426;48.496;9.098;2023-07-31T20:00:54;3.95;;;2.00;;
16624;SDS011;8426;48.496;9.098;2023-07-31T20:05:57;4.90;;;1.70;;
16624;SDS011;8426;48.496;9.098;2023-07-31T20:11:01;4.25;;;2.20;;
16624;SDS011;8426;48.496;9.098;2023-07-31T20:16:06;4.30;;;1.83;;
16624;SDS011;8426;48.496;9.098;2023-07-31T20:21:10;7.05;;;2.05;;
16624;SDS011;8426;48.496;9.098;2023-07-31T20:26:13;6.35;;;2.35;;
16624;SDS011;8426;48.496;9.098;2023-07-31T20:31:18;8.38;;;2.15;;
16624;SDS011;8426;48.496;9.098;2023-07-31T20:36:23;6.53;;;1.98;;
16624;SDS011;8426;48.496;9.098;2023-07-31T20:41:28;3.63;;;2.13;;
16624;SDS011;8426;48.496;9.098;2023-07-31T20:46:32;5.90;;;2.40;;
16624;SDS011;8426;48.496;9.098;2023-07-31T20:51:36;2.70;;;1.55;;
16624;SDS011;8426;48.496;9.098;2023-07-31T20:56:42;4.03;;;2.13;;
16624;SDS011;8426;48.496;9.098;2023-07-31T21:01:47;8.82;;;2.47;;
16624;SDS011;8426;48.496;9.098;2023-07-31T21:06:51;19.83;;;2.70;;
16624;SDS011;8426;48.496;9.098;2023-07-31T21:11:54;5.43;;;2.38;;
16624;SDS011;8426;48.496;9.098;2023-07-31T21:16:59;2.70;;;1.70;;
16624;SDS011;8426;48.496;9.098;2023-07-31T21:22:02;4.57;;;2.00;;
16624;SDS011;8426;48.496;9.098;2023-07-31T21:27:06;11.48;;;2.80;;
16624;SDS011;8426;48.496;9.098;2023-07-31T21:32:12;3.58;;;2.10;;
16624;SDS011;8426;48.496;9.098;2023-07-31T21:37:16;6.00;;;2.28;;
16624;SDS011;8426;48.496;9.098;2023-07-31T21:42:20;6.00;;;2.67;;
16624;SDS011;8426;48.496;9.098;2023-07-31T21:47:24;10.93;;;3.03;;
16624;SDS011;8426;48.496;9.098;2023-07-31T21:52:28;4.43;;;1.90;;
16624;SDS011;8426;48.496;9.098;2023-07-31T21:57:32;4.43;;;2.10;;
16624;SDS011;8426;48.496;9.098;2023-07-31T22:02:37;3.42;;;2.00;;
16624;SDS011;8426;48.496;9.098;2023-07-31T22:07:40;4.03;;;2.13;;
16624;SDS011;8426;48.496;9.098;2023-07-31T22:12:43;3.88;;;2.13;;
16624;SDS011;8426;48.496;9.098;2023-07-31T22:17:48;4.20;;;2.08;;
16624;SDS011;8426;48.496;9.098;2023-07-31T22:22:52;5.90;;;2.35;;
16624;SDS011;8426;48.496;9.098;2023-07-31T22:27:55;4.38;;;2.03;;
16624;SDS011;8426;48.496;9.098;2023-07-31T22:33:17;5.43;;;1.80;;
16624;SDS011;8426;48.496;9.098;2023-07-31T22:38:20;7.10;;;2.40;;
16624;SDS011;8426;48.496;9.098;2023-07-31T22:43:23;3.95;;;2.10;;
16624;SDS011;8426;48.496;9.098;2023-07-31T22:48:28;3.85;;;1.90;;
16624;SDS011;8426;48.496;9.098;2023-07-31T22:53:32;4.50;;;1.85;;
16624;SDS011;8426;48.496;9.098;2023-07-31T22:58:36;3.30;;;1.80;;
16624;SDS011;8426;48.496;9.098;2023-07-31T23:03:41;3.83;;;2.08;;
16624;SDS011;8426;48.496;9.098;2023-07-31T23:08:44;4.68;;;2.10;;
16624;SDS011;8426;48.496;9.098;2023-07-31T23:13:48;2.95;;;1.70;;
16624;SDS011;8426;48.496;9.098;2023-07-31T23:18:52;8.25;;;2.15;;
16624;SDS011;8426;48.496;9.098;2023-07-31T23:23:58;4.53;;;2.33;;
16624;SDS011;8426;48.496;9.098;2023-07-31T23:29:01;3.88;;;2.20;;
16624;SDS011;8426;48.496;9.098;2023-07-31T23:34:06;8.77;;;2.33;;
16624;SDS011;8426;48.496;9.098;2023-07-31T23:39:09;9.48;;;2.25;;
16624;SDS011;8426;48.496;9.098;2023-07-31T23:44:13;6.63;;;2.20;;
16624;SDS011;8426;48.496;9.098;2023-07-31T23:49:18;4.53;;;2.28;;
16624;SDS011;8426;48.496;9.098;2023-07-31T23:54:22;5.32;;;2.25;;
16624;SDS011;8426;48.496;9.098;2023-07-31T23:59:25;4.75;;;2.15;;
